Decoded Metar for KLWM (LAWRENCE in MA, USA) (IATA:LWM) | Meteo·Mobile Aviation Weather
aviador You're here:

KLWM Decoded Metar

LAWRENCE in MA, USA
Report Time2018-12-15 08:54:00
UTC Time2018-12-15 09:21:03
Flight Rules vfr VFR
Wind230° at 04 kt
W.Decomp.*RWY 23: 3.9 kt HW 1.0 kt RCW
RWY 32: 1.0 kt HW 3.9 kt LCW
W.Rank230° ranks 9
Current wind is below 230° avg. (7.4)
Visibility9999 m
Phenomena:N/A
Clouds:N/A
Expected CloudBase > 1,200 ft AGL from Temp-Dew spread
CeilingNone
Temp08°C (ISA -7)
Dew Point05°C (82% RH)
AAT5.5°C
QNH1021 hPa
Density Alt-774 ft
Elevation177 ft
Report Wrong Elevation
Raw Report
KLWM 150854Z AUTO 23004KT 10SM CLR 08/05 A3016 RMK AO2 SLP214
T00830050 58008=

Extra information for KLWM:More info

Metar Taf Metar & Taf Last 4 Metars F.Rules Stats Wind Profile Meteogram Temp Stats Airport Information Weather charts Add Link Nearby VenuesMetar ALERT Operation Metar Decoded Social comments

AIRNAV info for KLWM